createdAt,value
2022-09-15T00:00:10.358Z,5.25
2022-09-15T00:02:13.196Z,8.15
2022-09-15T00:04:15.551Z,6.00
2022-09-15T00:06:17.941Z,8.20
2022-09-15T00:08:20.196Z,9.65
2022-09-15T00:10:22.431Z,7.35
2022-09-15T00:12:24.574Z,7.90
2022-09-15T00:14:26.729Z,5.22
2022-09-15T00:16:31.308Z,6.75
2022-09-15T00:18:34.440Z,6.93
2022-09-15T00:20:41.393Z,8.63
2022-09-15T00:22:44.537Z,6.78
2022-09-15T00:24:49.572Z,6.82
2022-09-15T00:26:51.720Z,9.38
2022-09-15T00:28:54.679Z,6.22
2022-09-15T00:30:56.839Z,4.18
2022-09-15T00:32:59.089Z,5.32
2022-09-15T00:35:01.658Z,7.75
2022-09-15T00:37:03.949Z,7.45
2022-09-15T00:39:06.471Z,5.22
2022-09-15T00:41:12.470Z,9.07
2022-09-15T00:43:16.192Z,7.60
2022-09-15T00:45:18.467Z,7.13
2022-09-15T00:47:24.942Z,9.30
2022-09-15T00:49:31.150Z,10.32
2022-09-15T00:51:41.389Z,6.55
2022-09-15T00:53:45.831Z,8.90
2022-09-15T00:55:50.720Z,9.10
2022-09-15T00:58:00.059Z,8.88
2022-09-15T01:00:06.969Z,6.45
2022-09-15T01:02:16.536Z,7.97
2022-09-15T01:04:18.679Z,9.23
2022-09-15T01:06:29.700Z,11.25
2022-09-15T01:08:36.633Z,8.45
2022-09-15T01:10:41.428Z,11.57
2022-09-15T01:12:43.670Z,10.10
2022-09-15T01:14:45.795Z,8.88
2022-09-15T01:16:54.260Z,9.75
2022-09-15T01:18:58.148Z,11.07
2022-09-15T01:21:03.756Z,9.48
2022-09-15T01:23:18.970Z,12.00
2022-09-15T01:25:27.232Z,13.80
2022-09-15T01:27:43.029Z,14.85
2022-09-15T01:29:46.058Z,8.02
2022-09-15T01:31:55.207Z,9.60
2022-09-15T01:34:06.807Z,12.07
2022-09-15T01:36:13.473Z,9.73
2022-09-15T01:38:21.848Z,9.18
2022-09-15T01:40:28.842Z,12.05
2022-09-15T01:42:32.857Z,10.35
2022-09-15T01:44:42.828Z,9.05
2022-09-15T01:46:48.313Z,13.43
2022-09-15T01:48:54.449Z,12.38
2022-09-15T01:51:00.369Z,8.82
2022-09-15T01:53:08.611Z,12.50
2022-09-15T01:55:18.397Z,8.40
2022-09-15T01:57:21.762Z,13.05
2022-09-15T01:59:23.921Z,14.55
2022-09-15T02:01:40.836Z,10.65
2022-09-15T02:03:50.514Z,11.45
2022-09-15T02:06:02.173Z,14.55
2022-09-15T02:08:09.151Z,11.77
2022-09-15T02:10:14.873Z,12.90
2022-09-15T02:12:25.570Z,11.52
2022-09-15T02:14:38.282Z,8.60
2022-09-15T02:16:46.984Z,10.80
2022-09-15T02:18:58.350Z,8.50
2022-09-15T02:21:10.630Z,11.13
2022-09-15T02:23:21.895Z,9.20
2022-09-15T02:25:32.397Z,9.98
2022-09-15T02:27:41.321Z,11.13
2022-09-15T02:29:48.069Z,14.25
2022-09-15T02:31:54.514Z,15.68
2022-09-15T02:34:02.469Z,9.98
2022-09-15T02:36:05.425Z,13.00
2022-09-15T02:38:10.018Z,16.65
2022-09-15T02:40:12.712Z,12.98
2022-09-15T02:42:24.761Z,9.13
2022-09-15T02:44:27.318Z,17.13
2022-09-15T02:46:29.680Z,8.23
2022-09-15T02:48:31.846Z,10.43
2022-09-15T02:50:33.942Z,13.15
2022-09-15T02:52:36.104Z,13.98
2022-09-15T02:54:38.330Z,9.32
2022-09-15T02:56:41.260Z,10.35
2022-09-15T02:58:44.180Z,13.88
2022-09-15T03:00:46.385Z,9.68
2022-09-15T03:02:51.813Z,11.07
2022-09-15T03:04:53.938Z,18.60
2022-09-15T03:06:56.052Z,11.13
2022-09-15T03:08:59.088Z,10.02
2022-09-15T03:11:02.073Z,14.45
2022-09-15T03:13:06.653Z,10.13
2022-09-15T03:15:11.271Z,11.95
2022-09-15T03:17:13.658Z,16.55
2022-09-15T03:19:15.839Z,10.70
2022-09-15T03:21:19.365Z,14.48
2022-09-15T03:23:24.924Z,11.77
2022-09-15T03:25:27.314Z,13.07
2022-09-15T03:27:29.736Z,12.07
2022-09-15T03:29:32.031Z,13.73
2022-09-15T03:31:34.264Z,10.18
2022-09-15T03:33:36.973Z,10.60
2022-09-15T03:35:39.925Z,11.43
2022-09-15T03:37:42.138Z,11.70
2022-09-15T03:39:45.490Z,10.98
2022-09-15T03:41:50.421Z,8.00
2022-09-15T03:43:54.155Z,10.63
2022-09-15T03:45:56.977Z,13.20
2022-09-15T03:47:59.092Z,12.40
2022-09-15T03:50:01.191Z,24.80
2022-09-15T03:52:03.740Z,8.13
2022-09-15T03:54:05.908Z,6.95
2022-09-15T03:56:10.000Z,8.85
2022-09-15T03:58:13.789Z,7.70
2022-09-15T04:00:17.368Z,11.80
2022-09-15T04:02:19.516Z,11.93
2022-09-15T04:04:21.790Z,8.43
2022-09-15T04:06:24.505Z,7.50
2022-09-15T04:08:26.618Z,9.00
2022-09-15T04:10:29.510Z,9.82
2022-09-15T04:12:32.635Z,9.82
2022-09-15T04:14:34.851Z,6.40
2022-09-15T04:16:36.959Z,10.15
2022-09-15T04:18:39.225Z,10.10
2022-09-15T04:20:42.226Z,6.85
2022-09-15T04:22:45.488Z,8.07
2022-09-15T04:24:48.625Z,8.75
2022-09-15T04:26:51.661Z,5.63
2022-09-15T04:28:56.883Z,6.78
2022-09-15T04:31:06.709Z,6.85
2022-09-15T04:33:09.305Z,5.82
2022-09-15T04:35:11.644Z,7.18
2022-09-15T04:37:14.155Z,9.35
2022-09-15T04:39:16.655Z,4.78
2022-09-15T04:41:19.790Z,5.28
2022-09-15T04:43:22.689Z,9.07
2022-09-15T04:45:24.798Z,6.88
2022-09-15T04:47:27.032Z,11.68
2022-09-15T04:49:29.290Z,4.93
2022-09-15T04:51:31.498Z,5.18
2022-09-15T04:53:33.851Z,6.45
2022-09-15T04:55:36.769Z,5.35
2022-09-15T04:57:38.913Z,5.43
2022-09-15T04:59:41.198Z,7.43
2022-09-15T05:01:44.021Z,4.68
2022-09-15T05:03:46.750Z,9.60
2022-09-15T05:05:48.857Z,6.25
2022-09-15T05:07:50.969Z,5.18
2022-09-15T05:09:53.480Z,5.72
2022-09-15T05:11:55.853Z,4.88
2022-09-15T05:13:58.006Z,5.20
2022-09-15T05:16:05.170Z,4.97
2022-09-15T05:18:09.257Z,9.13
2022-09-15T05:20:11.656Z,4.97
2022-09-15T05:22:13.832Z,7.80
2022-09-15T05:24:16.981Z,7.07
2022-09-15T05:26:23.366Z,4.88
2022-09-15T05:28:28.748Z,9.95
2022-09-15T05:30:38.772Z,5.30
2022-09-15T05:32:43.489Z,6.03
2022-09-15T05:34:46.221Z,4.43
2022-09-15T05:36:49.776Z,5.53
2022-09-15T05:38:53.737Z,6.28
2022-09-15T05:41:01.607Z,4.38
2022-09-15T05:43:03.805Z,5.35
2022-09-15T05:45:06.673Z,4.05
2022-09-15T05:47:08.770Z,7.35
2022-09-15T05:49:12.045Z,5.40
2022-09-15T05:51:16.198Z,4.80
2022-09-15T05:53:18.509Z,7.40
2022-09-15T05:55:20.710Z,4.93
2022-09-15T05:57:23.057Z,5.32
2022-09-15T05:59:25.285Z,6.53
2022-09-15T06:01:31.237Z,8.35
2022-09-15T06:03:33.638Z,6.55
2022-09-15T06:05:35.709Z,6.68
2022-09-15T06:07:37.896Z,9.18
2022-09-15T06:09:40.229Z,5.60
2022-09-15T06:11:42.442Z,4.32
2022-09-15T06:13:45.645Z,7.70
2022-09-15T06:15:48.310Z,9.60
2022-09-15T06:17:50.976Z,4.88
2022-09-15T06:19:53.245Z,8.10
2022-09-15T06:21:55.474Z,6.95
2022-09-15T06:24:00.131Z,7.80
2022-09-15T06:26:08.670Z,5.78
2022-09-15T06:28:10.758Z,13.80
2022-09-15T06:30:13.884Z,5.93
2022-09-15T06:32:16.134Z,7.25
2022-09-15T06:34:18.425Z,6.80
2022-09-15T06:36:22.976Z,7.22
2022-09-15T06:38:25.170Z,8.73
2022-09-15T06:40:27.432Z,10.32
2022-09-15T06:42:29.803Z,6.07
2022-09-15T06:44:32.050Z,10.10
2022-09-15T06:46:34.305Z,8.88
2022-09-15T06:48:37.589Z,7.70
2022-09-15T06:50:39.790Z,7.65
2022-09-15T06:52:43.784Z,7.07
2022-09-15T06:54:46.637Z,9.73
2022-09-15T06:56:49.110Z,8.63
2022-09-15T06:59:12.918Z,7.72
2022-09-15T07:06:29.711Z,12.10
2022-09-15T07:08:36.828Z,10.73
2022-09-15T07:10:39.017Z,8.40
2022-09-15T07:12:43.174Z,14.05
2022-09-15T07:14:45.776Z,8.48
2022-09-15T07:16:48.097Z,11.18
2022-09-15T07:18:50.310Z,5.97
2022-09-15T07:20:53.531Z,8.10
2022-09-15T07:22:55.699Z,11.95
2022-09-15T07:24:57.786Z,10.65
2022-09-15T07:27:01.174Z,7.07
2022-09-15T07:29:06.265Z,4.53
2022-09-15T07:31:10.433Z,8.98
2022-09-15T07:33:14.717Z,7.28
2022-09-15T07:35:16.889Z,7.72
2022-09-15T07:37:19.279Z,8.75
2022-09-15T07:39:21.691Z,9.68
2022-09-15T07:41:27.270Z,8.07
2022-09-15T07:43:29.430Z,13.18
2022-09-15T07:45:32.213Z,7.25
2022-09-15T07:47:34.432Z,13.10
2022-09-15T07:49:36.605Z,11.23
2022-09-15T07:51:41.490Z,7.30
2022-09-15T07:53:45.531Z,10.90
2022-09-15T07:55:53.533Z,6.43
2022-09-15T07:57:59.631Z,9.48
2022-09-15T08:00:03.584Z,6.93
2022-09-15T08:02:05.923Z,5.70
2022-09-15T08:04:08.166Z,8.15
2022-09-15T08:06:11.078Z,11.80
2022-09-15T08:08:13.549Z,11.90
2022-09-15T08:10:15.762Z,7.60
2022-09-15T08:12:18.193Z,7.47
2022-09-15T08:14:20.505Z,4.10
2022-09-15T08:16:24.577Z,6.10
2022-09-15T08:18:26.867Z,14.43
2022-09-15T08:20:29.029Z,13.65
2022-09-15T08:22:31.214Z,7.10
2022-09-15T08:24:33.666Z,7.43
2022-09-15T08:26:38.719Z,5.85
2022-09-15T08:28:41.739Z,8.95
2022-09-15T08:30:43.969Z,13.55
2022-09-15T08:32:46.877Z,12.88
2022-09-15T08:34:48.991Z,10.85
2022-09-15T08:36:51.210Z,8.43
2022-09-15T08:38:53.316Z,8.20
2022-09-15T08:41:00.934Z,7.88
2022-09-15T08:43:16.508Z,6.10
2022-09-15T08:45:22.969Z,7.57
2022-09-15T08:47:31.406Z,10.90
2022-09-15T08:49:51.479Z,10.63
2022-09-15T08:54:06.296Z,9.85
2022-09-15T08:56:17.368Z,7.60
2022-09-15T08:58:21.275Z,9.13
2022-09-15T09:00:27.869Z,5.70
2022-09-15T09:02:34.651Z,8.38
2022-09-15T09:04:41.372Z,8.45
2022-09-15T09:06:47.305Z,4.85
2022-09-15T09:08:50.356Z,7.80
2022-09-15T09:10:59.391Z,11.57
2022-09-15T09:13:06.052Z,10.82
2022-09-15T09:15:16.279Z,8.50
2022-09-15T09:17:19.194Z,10.05
2022-09-15T09:19:32.262Z,6.00
2022-09-15T09:21:40.814Z,10.77
2022-09-15T09:23:54.991Z,9.02
2022-09-15T09:25:58.100Z,9.35
2022-09-15T09:28:02.599Z,8.40
2022-09-15T09:30:14.406Z,8.48
2022-09-15T09:32:24.832Z,5.70
2022-09-15T09:34:33.588Z,5.40
2022-09-15T09:36:37.035Z,8.18
2022-09-15T09:38:42.391Z,10.32
2022-09-15T09:40:44.918Z,9.70
2022-09-15T09:42:47.610Z,9.15
2022-09-15T09:44:49.891Z,8.23
2022-09-15T09:49:01.350Z,7.20
2022-09-15T09:51:04.068Z,3.13
2022-09-15T09:53:13.134Z,8.73
2022-09-15T09:55:27.422Z,7.95
2022-09-15T09:57:32.854Z,9.02
2022-09-15T09:59:46.342Z,5.18
2022-09-15T10:02:06.595Z,5.97
2022-09-15T10:04:17.638Z,11.55
2022-09-15T10:06:22.473Z,13.02
2022-09-15T10:08:25.752Z,4.20
2022-09-15T10:10:35.607Z,7.90
2022-09-15T10:12:42.393Z,7.15
2022-09-15T10:14:52.658Z,5.75
2022-09-15T10:16:59.497Z,7.82
2022-09-15T10:19:02.316Z,7.43
2022-09-15T10:21:08.168Z,5.45
2022-09-15T10:23:16.926Z,5.43
2022-09-15T10:25:20.867Z,8.88
2022-09-15T10:27:27.973Z,4.95
2022-09-15T10:29:39.299Z,3.45
2022-09-15T10:33:57.874Z,9.82
2022-09-15T10:36:05.974Z,15.50
2022-09-15T10:38:17.449Z,9.98
2022-09-15T10:40:25.913Z,5.00
2022-09-15T10:42:32.684Z,7.57
2022-09-15T10:44:38.338Z,9.52
2022-09-15T10:46:41.670Z,10.30
2022-09-15T10:48:53.247Z,6.03
2022-09-15T10:51:07.223Z,7.45
2022-09-15T10:53:15.850Z,9.52
2022-09-15T10:55:42.220Z,9.02
2022-09-15T10:57:50.110Z,8.95
2022-09-15T10:59:58.511Z,6.45
2022-09-15T11:02:08.594Z,7.93
2022-09-15T11:04:18.118Z,6.95
2022-09-15T11:06:24.061Z,6.63
2022-09-15T11:08:33.456Z,11.65
2022-09-15T11:12:42.650Z,10.13
2022-09-15T11:14:50.718Z,11.90
2022-09-15T11:16:59.129Z,6.40
2022-09-15T11:19:03.022Z,6.75
2022-09-15T11:21:11.508Z,9.88
2022-09-15T11:23:19.988Z,5.78
2022-09-15T11:25:27.234Z,5.72
2022-09-15T11:27:34.397Z,5.80
2022-09-15T11:29:57.621Z,4.35
2022-09-15T11:32:10.074Z,7.13
2022-09-15T11:34:13.090Z,4.15
2022-09-15T11:36:22.681Z,3.97
2022-09-15T11:38:31.192Z,6.55
2022-09-15T11:40:44.451Z,9.85
2022-09-15T11:42:55.252Z,9.10
2022-09-15T11:44:59.689Z,4.43
2022-09-15T11:47:05.408Z,6.78
2022-09-15T11:49:14.210Z,10.02
2022-09-15T11:51:19.719Z,10.57
2022-09-15T11:53:30.197Z,10.73
2022-09-15T11:55:38.709Z,7.72
2022-09-15T11:57:51.438Z,6.75
2022-09-15T12:00:03.361Z,5.90
2022-09-15T12:02:11.836Z,3.00
2022-09-15T12:04:27.611Z,7.40
2022-09-15T12:06:36.098Z,9.55
2022-09-15T12:08:43.771Z,4.78
2022-09-15T12:10:52.590Z,3.80
2022-09-15T12:12:57.229Z,6.65
2022-09-15T12:14:59.611Z,6.32
2022-09-15T12:17:04.349Z,3.80
2022-09-15T12:19:17.314Z,4.68
2022-09-15T12:21:31.310Z,5.13
2022-09-15T12:23:47.244Z,3.45
2022-09-15T12:25:52.878Z,6.43
2022-09-15T12:28:01.418Z,8.40
2022-09-15T12:30:28.618Z,4.90
2022-09-15T12:32:33.455Z,6.45
2022-09-15T12:34:38.777Z,8.82
2022-09-15T12:36:44.345Z,5.10
2022-09-15T12:38:50.183Z,7.05
2022-09-15T12:40:59.094Z,6.18
2022-09-15T12:45:21.281Z,5.93
2022-09-15T12:47:32.814Z,5.93
2022-09-15T12:49:42.527Z,7.07
2022-09-15T12:54:04.878Z,4.45
2022-09-15T12:56:11.988Z,4.25
2022-09-15T12:58:18.854Z,9.50
2022-09-15T13:00:42.310Z,9.65
2022-09-15T13:02:54.555Z,5.07
2022-09-15T13:04:58.318Z,3.60
2022-09-15T13:07:09.327Z,4.63
2022-09-15T13:09:22.986Z,5.22
2022-09-15T13:11:38.938Z,6.57
2022-09-15T13:13:47.738Z,3.60
2022-09-15T13:15:53.464Z,4.45
2022-09-15T13:17:57.649Z,8.73
2022-09-15T13:20:08.919Z,6.43
2022-09-15T13:22:13.284Z,4.80
2022-09-15T13:24:22.050Z,4.93
2022-09-15T13:28:29.803Z,4.88
2022-09-15T13:30:36.870Z,6.78
2022-09-15T13:32:47.300Z,4.25
2022-09-15T13:40:19.164Z,3.83
2022-09-15T13:42:26.444Z,5.70
2022-09-15T13:45:07.402Z,7.93
2022-09-15T13:47:24.217Z,10.10
2022-09-15T13:49:39.849Z,7.93
2022-09-15T13:51:47.598Z,4.40
2022-09-15T13:53:58.709Z,7.68
2022-09-15T13:56:07.002Z,6.97
2022-09-15T14:00:48.546Z,5.75
2022-09-15T14:02:57.215Z,5.88
2022-09-15T14:04:59.509Z,7.90
2022-09-15T14:07:02.640Z,7.05
2022-09-15T14:09:13.560Z,5.07
2022-09-15T14:11:22.048Z,7.38
2022-09-15T14:13:28.223Z,3.97
2022-09-15T14:15:30.738Z,4.93
2022-09-15T14:17:34.502Z,4.85
2022-09-15T14:19:38.633Z,4.82
2022-09-15T14:21:49.418Z,5.80
2022-09-15T14:23:56.478Z,5.70
2022-09-15T14:26:01.830Z,3.88
2022-09-15T14:28:05.871Z,6.35
2022-09-15T14:30:18.303Z,5.28
2022-09-15T14:32:21.531Z,2.85
2022-09-15T14:34:27.074Z,3.45
2022-09-15T14:36:33.557Z,5.22
2022-09-15T14:38:48.791Z,3.75
2022-09-15T14:40:57.563Z,4.07
2022-09-15T14:43:00.916Z,5.28
2022-09-15T14:47:32.179Z,6.28
2022-09-15T14:49:34.493Z,3.72
2022-09-15T14:51:44.956Z,4.45
2022-09-15T14:54:11.002Z,3.08
2022-09-15T14:56:20.378Z,5.25
2022-09-15T14:58:35.578Z,6.85
2022-09-15T15:00:45.114Z,5.25
2022-09-15T15:03:01.249Z,4.10
2022-09-15T15:05:18.740Z,3.67
2022-09-15T15:07:26.716Z,5.10
2022-09-15T15:09:38.700Z,5.13
2022-09-15T15:11:46.144Z,6.38
2022-09-15T15:14:07.345Z,3.35
2022-09-15T15:16:20.221Z,6.38
2022-09-15T15:20:58.466Z,6.93
2022-09-15T15:23:12.520Z,4.28
2022-09-15T15:27:35.145Z,3.35
2022-09-15T15:29:55.654Z,4.97
2022-09-15T15:32:08.074Z,5.13
2022-09-15T15:34:26.391Z,5.28
2022-09-15T15:36:32.325Z,4.45
2022-09-15T15:38:46.384Z,3.92
2022-09-15T15:41:05.177Z,5.70
2022-09-15T15:43:13.830Z,5.05
2022-09-15T15:45:33.914Z,3.40
2022-09-15T15:50:15.104Z,5.70
2022-09-15T15:52:23.324Z,3.00
2022-09-15T15:54:38.784Z,2.83
2022-09-15T15:56:43.804Z,5.53
2022-09-15T15:58:49.110Z,5.43
2022-09-15T16:05:02.959Z,8.02
2022-09-15T16:07:05.620Z,4.38
2022-09-15T16:09:08.738Z,2.42
2022-09-15T16:15:23.742Z,2.95
2022-09-15T16:17:26.306Z,4.20
2022-09-15T16:19:29.109Z,5.20
2022-09-15T16:25:52.885Z,2.53
2022-09-15T16:34:18.926Z,3.65
2022-09-15T16:38:26.215Z,3.47
2022-09-15T16:40:29.768Z,2.60
2022-09-15T16:42:39.344Z,4.25
2022-09-15T16:44:40.954Z,5.80
2022-09-15T16:46:43.490Z,4.13
2022-09-15T16:48:46.742Z,4.70
2022-09-15T16:51:16.918Z,3.78
2022-09-15T16:53:17.876Z,1.92
2022-09-15T16:55:42.449Z,5.22
2022-09-15T16:57:45.320Z,2.33
2022-09-15T17:01:54.460Z,4.30
2022-09-15T17:04:13.150Z,2.55
2022-09-15T17:06:18.589Z,3.13
2022-09-15T17:14:46.026Z,6.18
2022-09-15T17:16:50.105Z,4.65
2022-09-15T17:18:53.798Z,2.67
2022-09-15T17:23:34.050Z,3.55
2022-09-15T17:27:56.539Z,6.55
2022-09-15T17:30:26.593Z,6.53
2022-09-15T17:32:36.759Z,3.83
2022-09-15T17:34:39.511Z,3.67
2022-09-15T17:38:51.770Z,3.78
2022-09-15T17:43:00.939Z,5.63
2022-09-15T17:45:03.423Z,5.13
2022-09-15T17:47:11.367Z,3.80
2022-09-15T17:53:47.170Z,6.85
2022-09-15T17:55:55.092Z,5.05
2022-09-15T18:00:07.853Z,5.05
2022-09-15T18:02:19.469Z,3.17
2022-09-15T18:04:23.192Z,8.00
2022-09-15T18:06:27.837Z,4.68
2022-09-15T18:08:32.309Z,2.70
2022-09-15T18:10:38.367Z,4.60
2022-09-15T18:12:44.165Z,4.47
2022-09-15T18:14:58.136Z,5.80
2022-09-15T18:17:04.440Z,5.70
2022-09-15T18:19:06.709Z,5.20
2022-09-15T18:21:23.429Z,4.57
2022-09-15T18:23:31.789Z,3.95
2022-09-15T18:27:39.779Z,7.15
2022-09-15T18:33:53.891Z,9.18
2022-09-15T18:38:03.097Z,3.85
2022-09-15T18:40:11.027Z,4.90
2022-09-15T18:44:14.389Z,3.45
2022-09-15T18:46:27.068Z,4.00
2022-09-15T18:48:35.131Z,2.83
2022-09-15T18:50:37.471Z,7.18
2022-09-15T18:52:41.352Z,3.83
2022-09-15T18:54:45.262Z,8.18
2022-09-15T18:56:48.112Z,5.97
2022-09-15T18:58:53.552Z,8.23
2022-09-15T19:00:59.391Z,3.83
2022-09-15T19:03:03.492Z,3.67
2022-09-15T19:05:06.533Z,7.30
2022-09-15T19:07:10.431Z,6.93
2022-09-15T19:09:12.709Z,5.10
2022-09-15T19:11:14.872Z,5.95
2022-09-15T19:13:17.250Z,9.10
2022-09-15T19:21:35.215Z,5.80
2022-09-15T19:23:37.254Z,5.07
2022-09-15T19:25:43.216Z,6.65
2022-09-15T19:28:01.913Z,7.10
2022-09-15T19:30:07.732Z,2.65
2022-09-15T19:32:14.045Z,4.13
2022-09-15T19:34:16.255Z,3.60
2022-09-15T19:38:20.484Z,5.15
2022-09-15T19:40:28.301Z,7.50
2022-09-15T19:42:30.734Z,5.35
2022-09-15T19:46:35.399Z,5.88
2022-09-15T19:48:40.911Z,3.80
2022-09-15T19:50:46.049Z,6.20
2022-09-15T19:52:48.334Z,3.67
2022-09-15T19:56:56.896Z,7.07
2022-09-15T19:58:59.478Z,5.20
2022-09-15T20:01:01.798Z,5.60
2022-09-15T20:05:06.934Z,7.68
2022-09-15T20:07:09.247Z,7.45
2022-09-15T20:09:11.750Z,6.97
2022-09-15T20:11:14.996Z,4.47
2022-09-15T20:15:23.056Z,7.65
2022-09-15T20:19:35.039Z,4.53
2022-09-15T20:21:50.294Z,8.93
2022-09-15T20:26:30.653Z,6.70
2022-09-15T20:28:34.119Z,2.28
2022-09-15T20:30:36.559Z,3.30
2022-09-15T20:32:41.521Z,5.80
2022-09-15T20:34:43.715Z,5.43
2022-09-15T20:38:53.982Z,4.95
2022-09-15T20:40:56.069Z,5.13
2022-09-15T20:42:57.692Z,7.10
2022-09-15T20:45:00.056Z,3.75
2022-09-15T20:47:02.292Z,4.13
2022-09-15T20:49:05.269Z,4.25
2022-09-15T20:53:14.579Z,6.85
2022-09-15T20:55:16.819Z,5.13
2022-09-15T20:57:19.034Z,11.80
2022-09-15T21:03:30.434Z,5.30
2022-09-15T21:05:32.768Z,3.78
2022-09-15T21:07:35.281Z,7.93
2022-09-15T21:09:37.464Z,3.30
2022-09-15T21:13:43.692Z,5.93
2022-09-15T21:15:53.906Z,8.70
2022-09-15T21:17:56.160Z,5.50
2022-09-15T21:20:03.716Z,3.65
2022-09-15T21:22:08.145Z,7.28
2022-09-15T21:24:11.131Z,22.63
2022-09-15T21:26:29.756Z,70.70
2022-09-15T21:28:44.905Z,94.35
2022-09-15T21:30:49.286Z,60.47
2022-09-15T21:32:51.660Z,46.08
2022-09-15T21:34:56.169Z,21.50
2022-09-15T21:36:58.450Z,12.95
2022-09-15T21:39:00.763Z,9.45
2022-09-15T21:41:03.934Z,6.75
2022-09-15T21:43:06.130Z,8.10
2022-09-15T21:47:11.363Z,5.53
2022-09-15T21:49:13.440Z,8.50
2022-09-15T21:51:46.514Z,6.72
2022-09-15T21:56:52.068Z,9.10
2022-09-15T21:59:16.270Z,6.80
2022-09-15T22:01:45.520Z,8.38
2022-09-15T22:03:55.705Z,7.53
2022-09-15T22:08:05.007Z,4.35
2022-09-15T22:10:07.331Z,3.35
2022-09-15T22:12:09.795Z,5.47
2022-09-15T22:14:21.688Z,4.25
2022-09-15T22:16:26.869Z,5.95
2022-09-15T22:18:29.152Z,5.07
2022-09-15T22:20:31.804Z,8.93
2022-09-15T22:22:34.415Z,3.55
2022-09-15T22:24:36.744Z,5.22
2022-09-15T22:26:39.666Z,5.85
2022-09-15T22:30:44.332Z,4.70
2022-09-15T22:32:46.517Z,4.20
2022-09-15T22:36:50.837Z,7.15
2022-09-15T22:38:54.724Z,8.43
2022-09-15T22:41:04.466Z,4.55
2022-09-15T22:43:07.055Z,2.60
2022-09-15T22:45:11.796Z,4.72
2022-09-15T22:47:15.861Z,2.33
2022-09-15T22:53:34.513Z,7.55
2022-09-15T22:55:57.255Z,5.25
2022-09-15T22:58:01.643Z,6.60
2022-09-15T23:00:45.160Z,7.63
2022-09-15T23:03:12.713Z,3.30
2022-09-15T23:05:34.895Z,5.07
2022-09-15T23:07:36.845Z,5.93
2022-09-15T23:09:43.343Z,6.13
2022-09-15T23:11:45.503Z,8.15
2022-09-15T23:13:47.870Z,6.18
2022-09-15T23:15:50.013Z,4.25
2022-09-15T23:19:53.363Z,7.47
2022-09-15T23:21:57.142Z,3.47
2022-09-15T23:24:01.665Z,4.07
2022-09-15T23:26:07.533Z,4.93
2022-09-15T23:28:09.743Z,4.00
2022-09-15T23:30:12.841Z,5.43
2022-09-15T23:32:14.983Z,5.75
2022-09-15T23:34:17.063Z,4.43
2022-09-15T23:36:23.895Z,5.65
2022-09-15T23:38:30.044Z,5.13
2022-09-15T23:40:34.233Z,6.78
2022-09-15T23:44:41.325Z,2.78
2022-09-15T23:46:44.562Z,3.22
2022-09-15T23:53:00.097Z,3.03
2022-09-15T23:55:08.919Z,5.03
2022-09-15T23:57:13.036Z,4.60
2022-09-15T23:59:14.854Z,8.38
